sensor_id;sensor_type;location;lat;lon;timestamp;P1;durP1;ratioP1;P2;durP2;ratioP2
73729;SDS011;62036;48.128;16.458;2023-07-20T00:00:53;4.80;;;2.78;;
73729;SDS011;62036;48.128;16.458;2023-07-20T00:03:20;4.20;;;2.15;;
73729;SDS011;62036;48.128;16.458;2023-07-20T00:05:50;4.20;;;2.60;;
73729;SDS011;62036;48.128;16.458;2023-07-20T00:08:17;4.80;;;2.85;;
73729;SDS011;62036;48.128;16.458;2023-07-20T00:10:44;4.28;;;2.42;;
73729;SDS011;62036;48.128;16.458;2023-07-20T00:13:13;5.97;;;2.60;;
73729;SDS011;62036;48.128;16.458;2023-07-20T00:18:06;4.47;;;2.40;;
73729;SDS011;62036;48.128;16.458;2023-07-20T00:20:33;3.47;;;2.50;;
73729;SDS011;62036;48.128;16.458;2023-07-20T00:22:58;5.75;;;3.05;;
73729;SDS011;62036;48.128;16.458;2023-07-20T00:25:25;3.70;;;2.55;;
73729;SDS011;62036;48.128;16.458;2023-07-20T00:27:51;4.10;;;2.40;;
73729;SDS011;62036;48.128;16.458;2023-07-20T00:30:17;4.13;;;2.75;;
73729;SDS011;62036;48.128;16.458;2023-07-20T00:32:44;4.43;;;2.60;;
73729;SDS011;62036;48.128;16.458;2023-07-20T00:35:10;5.40;;;2.70;;
73729;SDS011;62036;48.128;16.458;2023-07-20T00:37:36;4.25;;;2.28;;
73729;SDS011;62036;48.128;16.458;2023-07-20T00:40:02;5.30;;;2.63;;
73729;SDS011;62036;48.128;16.458;2023-07-20T00:42:34;4.63;;;2.80;;
73729;SDS011;62036;48.128;16.458;2023-07-20T00:45:01;4.30;;;2.85;;
73729;SDS011;62036;48.128;16.458;2023-07-20T00:47:27;4.85;;;2.63;;
73729;SDS011;62036;48.128;16.458;2023-07-20T00:49:53;4.10;;;2.80;;
73729;SDS011;62036;48.128;16.458;2023-07-20T00:52:20;3.72;;;2.42;;
73729;SDS011;62036;48.128;16.458;2023-07-20T00:54:47;6.55;;;3.45;;
73729;SDS011;62036;48.128;16.458;2023-07-20T00:57:16;3.85;;;2.33;;
73729;SDS011;62036;48.128;16.458;2023-07-20T00:59:43;3.58;;;2.30;;
73729;SDS011;62036;48.128;16.458;2023-07-20T01:02:09;5.05;;;2.75;;
73729;SDS011;62036;48.128;16.458;2023-07-20T01:04:35;3.53;;;2.40;;
73729;SDS011;62036;48.128;16.458;2023-07-20T01:09:40;4.55;;;2.20;;
73729;SDS011;62036;48.128;16.458;2023-07-20T01:12:08;5.28;;;3.15;;
73729;SDS011;62036;48.128;16.458;2023-07-20T01:14:37;5.40;;;2.67;;
73729;SDS011;62036;48.128;16.458;2023-07-20T01:17:03;4.32;;;3.00;;
73729;SDS011;62036;48.128;16.458;2023-07-20T01:19:30;4.95;;;2.80;;
73729;SDS011;62036;48.128;16.458;2023-07-20T01:22:21;4.07;;;2.45;;
73729;SDS011;62036;48.128;16.458;2023-07-20T01:32:22;4.07;;;2.70;;
73729;SDS011;62036;48.128;16.458;2023-07-20T01:34:49;4.15;;;2.22;;
73729;SDS011;62036;48.128;16.458;2023-07-20T01:37:17;3.92;;;2.67;;
73729;SDS011;62036;48.128;16.458;2023-07-20T01:39:45;4.75;;;2.95;;
73729;SDS011;62036;48.128;16.458;2023-07-20T01:42:11;4.07;;;2.83;;
73729;SDS011;62036;48.128;16.458;2023-07-20T01:44:38;3.67;;;2.33;;
73729;SDS011;62036;48.128;16.458;2023-07-20T01:47:04;3.88;;;2.40;;
73729;SDS011;62036;48.128;16.458;2023-07-20T01:49:30;4.38;;;2.70;;
73729;SDS011;62036;48.128;16.458;2023-07-20T01:51:56;4.45;;;2.75;;
73729;SDS011;62036;48.128;16.458;2023-07-20T01:54:22;4.35;;;2.53;;
73729;SDS011;62036;48.128;16.458;2023-07-20T01:56:48;5.63;;;3.00;;
73729;SDS011;62036;48.128;16.458;2023-07-20T01:59:14;4.57;;;2.65;;
73729;SDS011;62036;48.128;16.458;2023-07-20T02:01:40;4.55;;;2.40;;
73729;SDS011;62036;48.128;16.458;2023-07-20T02:04:06;4.85;;;2.38;;
73729;SDS011;62036;48.128;16.458;2023-07-20T02:06:32;4.65;;;2.10;;
73729;SDS011;62036;48.128;16.458;2023-07-20T02:08:58;4.43;;;2.38;;
73729;SDS011;62036;48.128;16.458;2023-07-20T02:11:24;5.35;;;2.20;;
73729;SDS011;62036;48.128;16.458;2023-07-20T02:13:50;12.82;;;2.85;;
73729;SDS011;62036;48.128;16.458;2023-07-20T02:16:16;5.15;;;2.50;;
73729;SDS011;62036;48.128;16.458;2023-07-20T02:18:42;6.80;;;2.67;;
73729;SDS011;62036;48.128;16.458;2023-07-20T02:21:08;4.03;;;2.42;;
73729;SDS011;62036;48.128;16.458;2023-07-20T02:23:34;4.82;;;2.60;;
73729;SDS011;62036;48.128;16.458;2023-07-20T02:26:00;5.57;;;2.95;;
73729;SDS011;62036;48.128;16.458;2023-07-20T02:28:26;5.75;;;2.88;;
73729;SDS011;62036;48.128;16.458;2023-07-20T02:30:54;4.97;;;2.60;;
73729;SDS011;62036;48.128;16.458;2023-07-20T02:33:20;4.53;;;2.53;;
73729;SDS011;62036;48.128;16.458;2023-07-20T02:35:46;4.13;;;2.42;;
73729;SDS011;62036;48.128;16.458;2023-07-20T02:38:12;4.40;;;2.28;;
73729;SDS011;62036;48.128;16.458;2023-07-20T02:40:39;5.72;;;2.60;;
73729;SDS011;62036;48.128;16.458;2023-07-20T02:43:05;11.57;;;3.13;;
73729;SDS011;62036;48.128;16.458;2023-07-20T02:45:31;5.50;;;2.83;;
73729;SDS011;62036;48.128;16.458;2023-07-20T02:47:57;5.53;;;2.95;;
73729;SDS011;62036;48.128;16.458;2023-07-20T02:50:23;5.65;;;2.95;;
73729;SDS011;62036;48.128;16.458;2023-07-20T02:52:49;3.75;;;2.45;;
73729;SDS011;62036;48.128;16.458;2023-07-20T02:55:15;3.42;;;2.22;;
73729;SDS011;62036;48.128;16.458;2023-07-20T02:57:41;3.80;;;2.10;;
73729;SDS011;62036;48.128;16.458;2023-07-20T03:00:07;4.25;;;2.72;;
73729;SDS011;62036;48.128;16.458;2023-07-20T03:02:33;4.90;;;2.90;;
73729;SDS011;62036;48.128;16.458;2023-07-20T03:04:59;5.28;;;2.78;;
73729;SDS011;62036;48.128;16.458;2023-07-20T03:07:27;4.75;;;2.50;;
73729;SDS011;62036;48.128;16.458;2023-07-20T03:09:54;4.28;;;2.28;;
73729;SDS011;62036;48.128;16.458;2023-07-20T03:12:20;6.28;;;2.70;;
73729;SDS011;62036;48.128;16.458;2023-07-20T03:14:47;4.00;;;2.70;;
73729;SDS011;62036;48.128;16.458;2023-07-20T03:17:13;3.28;;;2.63;;
73729;SDS011;62036;48.128;16.458;2023-07-20T03:19:39;6.15;;;2.50;;
73729;SDS011;62036;48.128;16.458;2023-07-20T03:22:05;3.50;;;2.38;;
73729;SDS011;62036;48.128;16.458;2023-07-20T03:24:31;4.28;;;2.65;;
73729;SDS011;62036;48.128;16.458;2023-07-20T03:26:57;4.78;;;2.30;;
73729;SDS011;62036;48.128;16.458;2023-07-20T03:29:24;4.68;;;2.40;;
73729;SDS011;62036;48.128;16.458;2023-07-20T03:31:50;3.17;;;2.17;;
73729;SDS011;62036;48.128;16.458;2023-07-20T03:34:16;3.85;;;2.30;;
73729;SDS011;62036;48.128;16.458;2023-07-20T03:36:43;3.72;;;2.33;;
73729;SDS011;62036;48.128;16.458;2023-07-20T03:39:09;4.47;;;2.40;;
73729;SDS011;62036;48.128;16.458;2023-07-20T03:41:35;4.55;;;2.42;;
73729;SDS011;62036;48.128;16.458;2023-07-20T03:44:02;5.65;;;2.35;;
73729;SDS011;62036;48.128;16.458;2023-07-20T03:46:28;3.88;;;1.98;;
73729;SDS011;62036;48.128;16.458;2023-07-20T03:48:54;5.13;;;2.03;;
73729;SDS011;62036;48.128;16.458;2023-07-20T03:51:20;4.57;;;2.70;;
73729;SDS011;62036;48.128;16.458;2023-07-20T03:53:46;4.93;;;2.28;;
73729;SDS011;62036;48.128;16.458;2023-07-20T03:56:12;3.60;;;2.33;;
73729;SDS011;62036;48.128;16.458;2023-07-20T03:58:38;4.43;;;1.98;;
73729;SDS011;62036;48.128;16.458;2023-07-20T04:01:04;2.75;;;1.90;;
73729;SDS011;62036;48.128;16.458;2023-07-20T04:03:30;3.15;;;2.15;;
73729;SDS011;62036;48.128;16.458;2023-07-20T04:05:56;3.05;;;2.05;;
73729;SDS011;62036;48.128;16.458;2023-07-20T04:08:25;2.78;;;2.20;;
73729;SDS011;62036;48.128;16.458;2023-07-20T04:10:51;3.35;;;2.08;;
73729;SDS011;62036;48.128;16.458;2023-07-20T04:13:17;3.35;;;2.25;;
73729;SDS011;62036;48.128;16.458;2023-07-20T04:15:44;3.65;;;2.13;;
73729;SDS011;62036;48.128;16.458;2023-07-20T04:18:10;3.92;;;2.05;;
73729;SDS011;62036;48.128;16.458;2023-07-20T04:20:36;4.63;;;2.22;;
73729;SDS011;62036;48.128;16.458;2023-07-20T04:23:02;3.25;;;2.20;;
73729;SDS011;62036;48.128;16.458;2023-07-20T04:25:28;4.30;;;1.95;;
73729;SDS011;62036;48.128;16.458;2023-07-20T04:27:54;2.50;;;1.95;;
73729;SDS011;62036;48.128;16.458;2023-07-20T04:30:20;3.60;;;1.80;;
73729;SDS011;62036;48.128;16.458;2023-07-20T04:32:47;3.63;;;1.90;;
73729;SDS011;62036;48.128;16.458;2023-07-20T04:37:58;5.80;;;2.63;;
73729;SDS011;62036;48.128;16.458;2023-07-20T04:40:24;6.13;;;2.85;;
73729;SDS011;62036;48.128;16.458;2023-07-20T04:42:51;5.72;;;2.30;;
73729;SDS011;62036;48.128;16.458;2023-07-20T04:45:16;14.07;;;3.67;;
73729;SDS011;62036;48.128;16.458;2023-07-20T04:47:44;6.88;;;2.22;;
73729;SDS011;62036;48.128;16.458;2023-07-20T04:50:10;3.63;;;1.75;;
73729;SDS011;62036;48.128;16.458;2023-07-20T04:52:36;4.68;;;2.28;;
73729;SDS011;62036;48.128;16.458;2023-07-20T04:55:02;5.80;;;2.83;;
73729;SDS011;62036;48.128;16.458;2023-07-20T04:57:29;3.67;;;1.95;;
73729;SDS011;62036;48.128;16.458;2023-07-20T04:59:55;3.38;;;2.50;;
73729;SDS011;62036;48.128;16.458;2023-07-20T05:02:21;3.78;;;2.25;;
73729;SDS011;62036;48.128;16.458;2023-07-20T05:04:47;3.83;;;2.33;;
73729;SDS011;62036;48.128;16.458;2023-07-20T05:07:13;6.15;;;2.05;;
73729;SDS011;62036;48.128;16.458;2023-07-20T05:09:39;4.05;;;2.28;;
73729;SDS011;62036;48.128;16.458;2023-07-20T05:12:06;3.88;;;2.10;;
73729;SDS011;62036;48.128;16.458;2023-07-20T05:14:32;4.57;;;2.20;;
73729;SDS011;62036;48.128;16.458;2023-07-20T05:16:58;4.50;;;2.10;;
73729;SDS011;62036;48.128;16.458;2023-07-20T05:19:24;4.20;;;2.45;;
73729;SDS011;62036;48.128;16.458;2023-07-20T05:21:50;4.90;;;2.17;;
73729;SDS011;62036;48.128;16.458;2023-07-20T05:24:16;3.28;;;2.15;;
73729;SDS011;62036;48.128;16.458;2023-07-20T05:26:43;4.05;;;2.50;;
73729;SDS011;62036;48.128;16.458;2023-07-20T05:29:09;4.75;;;2.10;;
73729;SDS011;62036;48.128;16.458;2023-07-20T05:31:35;4.47;;;2.80;;
73729;SDS011;62036;48.128;16.458;2023-07-20T05:34:01;4.35;;;2.30;;
73729;SDS011;62036;48.128;16.458;2023-07-20T05:36:27;4.40;;;2.83;;
73729;SDS011;62036;48.128;16.458;2023-07-20T05:38:53;3.83;;;2.10;;
73729;SDS011;62036;48.128;16.458;2023-07-20T05:41:19;7.65;;;2.08;;
73729;SDS011;62036;48.128;16.458;2023-07-20T05:43:45;6.00;;;3.05;;
73729;SDS011;62036;48.128;16.458;2023-07-20T05:46:14;4.28;;;2.30;;
73729;SDS011;62036;48.128;16.458;2023-07-20T05:48:42;3.53;;;2.13;;
73729;SDS011;62036;48.128;16.458;2023-07-20T05:51:08;4.50;;;2.28;;
73729;SDS011;62036;48.128;16.458;2023-07-20T05:53:37;6.10;;;1.70;;
73729;SDS011;62036;48.128;16.458;2023-07-20T05:56:03;4.68;;;2.67;;
73729;SDS011;62036;48.128;16.458;2023-07-20T05:58:29;3.70;;;2.40;;
73729;SDS011;62036;48.128;16.458;2023-07-20T06:00:56;6.03;;;2.90;;
73729;SDS011;62036;48.128;16.458;2023-07-20T06:03:23;7.53;;;2.70;;
73729;SDS011;62036;48.128;16.458;2023-07-20T06:05:49;4.75;;;2.50;;
73729;SDS011;62036;48.128;16.458;2023-07-20T06:08:15;3.47;;;2.40;;
73729;SDS011;62036;48.128;16.458;2023-07-20T06:10:41;5.90;;;2.50;;
73729;SDS011;62036;48.128;16.458;2023-07-20T06:13:07;7.68;;;2.50;;
73729;SDS011;62036;48.128;16.458;2023-07-20T06:15:33;4.63;;;2.05;;
73729;SDS011;62036;48.128;16.458;2023-07-20T06:20:30;3.90;;;2.05;;
73729;SDS011;62036;48.128;16.458;2023-07-20T06:22:56;3.97;;;2.00;;
73729;SDS011;62036;48.128;16.458;2023-07-20T06:25:22;5.80;;;2.40;;
73729;SDS011;62036;48.128;16.458;2023-07-20T06:27:49;5.88;;;2.30;;
73729;SDS011;62036;48.128;16.458;2023-07-20T06:30:18;3.60;;;2.25;;
73729;SDS011;62036;48.128;16.458;2023-07-20T06:32:44;5.63;;;2.13;;
73729;SDS011;62036;48.128;16.458;2023-07-20T06:35:11;8.45;;;2.40;;
73729;SDS011;62036;48.128;16.458;2023-07-20T06:37:36;3.03;;;1.90;;
73729;SDS011;62036;48.128;16.458;2023-07-20T06:40:03;3.75;;;1.70;;
73729;SDS011;62036;48.128;16.458;2023-07-20T06:42:32;7.15;;;2.03;;
73729;SDS011;62036;48.128;16.458;2023-07-20T06:44:58;7.80;;;3.97;;
73729;SDS011;62036;48.128;16.458;2023-07-20T06:47:24;4.30;;;2.72;;
73729;SDS011;62036;48.128;16.458;2023-07-20T06:49:53;6.03;;;4.60;;
73729;SDS011;62036;48.128;16.458;2023-07-20T06:52:19;6.22;;;3.33;;
73729;SDS011;62036;48.128;16.458;2023-07-20T06:54:45;5.95;;;3.45;;
73729;SDS011;62036;48.128;16.458;2023-07-20T06:57:11;4.90;;;2.78;;
73729;SDS011;62036;48.128;16.458;2023-07-20T06:59:37;3.72;;;2.35;;
73729;SDS011;62036;48.128;16.458;2023-07-20T07:02:03;5.72;;;2.25;;
73729;SDS011;62036;48.128;16.458;2023-07-20T07:04:29;4.85;;;2.13;;
73729;SDS011;62036;48.128;16.458;2023-07-20T07:06:55;3.35;;;1.90;;
73729;SDS011;62036;48.128;16.458;2023-07-20T07:09:21;7.45;;;1.90;;
73729;SDS011;62036;48.128;16.458;2023-07-20T07:11:47;3.90;;;1.50;;
73729;SDS011;62036;48.128;16.458;2023-07-20T07:14:13;6.60;;;2.20;;
73729;SDS011;62036;48.128;16.458;2023-07-20T07:16:39;3.83;;;1.90;;
73729;SDS011;62036;48.128;16.458;2023-07-20T07:19:05;5.70;;;1.90;;
73729;SDS011;62036;48.128;16.458;2023-07-20T07:21:33;3.58;;;1.60;;
73729;SDS011;62036;48.128;16.458;2023-07-20T07:23:59;3.30;;;1.75;;
73729;SDS011;62036;48.128;16.458;2023-07-20T07:26:25;4.35;;;2.22;;
73729;SDS011;62036;48.128;16.458;2023-07-20T07:28:51;3.47;;;2.00;;
73729;SDS011;62036;48.128;16.458;2023-07-20T07:31:17;3.00;;;1.95;;
73729;SDS011;62036;48.128;16.458;2023-07-20T07:33:43;4.50;;;1.90;;
73729;SDS011;62036;48.128;16.458;2023-07-20T07:36:09;4.55;;;2.13;;
73729;SDS011;62036;48.128;16.458;2023-07-20T07:38:35;3.55;;;1.95;;
73729;SDS011;62036;48.128;16.458;2023-07-20T07:41:02;4.15;;;1.77;;
73729;SDS011;62036;48.128;16.458;2023-07-20T07:43:28;4.70;;;2.05;;
73729;SDS011;62036;48.128;16.458;2023-07-20T07:45:54;3.85;;;1.70;;
73729;SDS011;62036;48.128;16.458;2023-07-20T07:48:21;3.17;;;2.17;;
73729;SDS011;62036;48.128;16.458;2023-07-20T07:50:47;4.82;;;2.10;;
73729;SDS011;62036;48.128;16.458;2023-07-20T07:53:15;3.75;;;2.80;;
73729;SDS011;62036;48.128;16.458;2023-07-20T07:55:41;3.70;;;2.20;;
73729;SDS011;62036;48.128;16.458;2023-07-20T07:58:07;4.15;;;2.28;;
73729;SDS011;62036;48.128;16.458;2023-07-20T08:00:33;3.95;;;2.47;;
73729;SDS011;62036;48.128;16.458;2023-07-20T08:02:59;6.00;;;2.75;;
73729;SDS011;62036;48.128;16.458;2023-07-20T08:05:25;4.63;;;2.50;;
73729;SDS011;62036;48.128;16.458;2023-07-20T08:07:51;3.38;;;2.60;;
73729;SDS011;62036;48.128;16.458;2023-07-20T08:10:18;4.00;;;2.72;;
73729;SDS011;62036;48.128;16.458;2023-07-20T08:12:44;4.95;;;3.00;;
73729;SDS011;62036;48.128;16.458;2023-07-20T08:15:13;5.38;;;2.50;;
73729;SDS011;62036;48.128;16.458;2023-07-20T08:17:40;4.38;;;2.33;;
73729;SDS011;62036;48.128;16.458;2023-07-20T08:20:07;5.55;;;2.75;;
73729;SDS011;62036;48.128;16.458;2023-07-20T08:22:36;9.93;;;2.53;;
73729;SDS011;62036;48.128;16.458;2023-07-20T08:25:02;3.53;;;2.25;;
73729;SDS011;62036;48.128;16.458;2023-07-20T08:27:28;3.90;;;2.40;;
73729;SDS011;62036;48.128;16.458;2023-07-20T08:29:54;5.20;;;2.55;;
73729;SDS011;62036;48.128;16.458;2023-07-20T08:32:20;4.45;;;2.08;;
73729;SDS011;62036;48.128;16.458;2023-07-20T08:34:46;4.57;;;2.47;;
73729;SDS011;62036;48.128;16.458;2023-07-20T08:37:12;6.93;;;2.35;;
73729;SDS011;62036;48.128;16.458;2023-07-20T08:39:38;4.95;;;2.35;;
73729;SDS011;62036;48.128;16.458;2023-07-20T08:42:04;4.60;;;1.85;;
73729;SDS011;62036;48.128;16.458;2023-07-20T08:44:32;4.35;;;2.65;;
73729;SDS011;62036;48.128;16.458;2023-07-20T08:46:59;3.38;;;2.35;;
73729;SDS011;62036;48.128;16.458;2023-07-20T08:49:28;4.13;;;2.03;;
73729;SDS011;62036;48.128;16.458;2023-07-20T08:51:54;4.13;;;2.40;;
73729;SDS011;62036;48.128;16.458;2023-07-20T08:54:21;6.20;;;2.67;;
73729;SDS011;62036;48.128;16.458;2023-07-20T08:56:47;4.43;;;2.20;;
73729;SDS011;62036;48.128;16.458;2023-07-20T08:59:14;4.03;;;2.15;;
73729;SDS011;62036;48.128;16.458;2023-07-20T09:01:42;4.75;;;2.63;;
73729;SDS011;62036;48.128;16.458;2023-07-20T09:04:10;4.28;;;2.58;;
73729;SDS011;62036;48.128;16.458;2023-07-20T09:06:37;4.35;;;2.53;;
73729;SDS011;62036;48.128;16.458;2023-07-20T09:09:03;3.78;;;2.03;;
73729;SDS011;62036;48.128;16.458;2023-07-20T09:11:30;4.97;;;2.30;;
73729;SDS011;62036;48.128;16.458;2023-07-20T09:14:06;5.15;;;2.45;;
73729;SDS011;62036;48.128;16.458;2023-07-20T09:16:32;5.20;;;2.08;;
73729;SDS011;62036;48.128;16.458;2023-07-20T09:18:58;3.60;;;2.25;;
73729;SDS011;62036;48.128;16.458;2023-07-20T09:21:27;4.32;;;2.05;;
73729;SDS011;62036;48.128;16.458;2023-07-20T09:23:55;5.13;;;2.22;;
73729;SDS011;62036;48.128;16.458;2023-07-20T09:26:22;4.60;;;2.13;;
73729;SDS011;62036;48.128;16.458;2023-07-20T09:28:49;3.92;;;2.25;;
73729;SDS011;62036;48.128;16.458;2023-07-20T09:31:19;4.55;;;2.22;;
73729;SDS011;62036;48.128;16.458;2023-07-20T09:33:45;4.13;;;2.25;;
73729;SDS011;62036;48.128;16.458;2023-07-20T09:36:11;2.97;;;2.28;;
73729;SDS011;62036;48.128;16.458;2023-07-20T09:38:38;3.10;;;2.20;;
73729;SDS011;62036;48.128;16.458;2023-07-20T09:41:07;3.10;;;1.83;;
73729;SDS011;62036;48.128;16.458;2023-07-20T09:43:34;4.57;;;1.92;;
73729;SDS011;62036;48.128;16.458;2023-07-20T09:46:00;3.72;;;1.90;;
73729;SDS011;62036;48.128;16.458;2023-07-20T09:48:26;2.33;;;1.48;;
73729;SDS011;62036;48.128;16.458;2023-07-20T09:50:52;2.28;;;1.73;;
73729;SDS011;62036;48.128;16.458;2023-07-20T09:53:19;3.50;;;1.90;;
73729;SDS011;62036;48.128;16.458;2023-07-20T09:55:46;6.97;;;2.47;;
73729;SDS011;62036;48.128;16.458;2023-07-20T09:58:12;3.58;;;2.22;;
73729;SDS011;62036;48.128;16.458;2023-07-20T10:00:39;3.17;;;2.13;;
73729;SDS011;62036;48.128;16.458;2023-07-20T10:03:06;6.28;;;2.95;;
73729;SDS011;62036;48.128;16.458;2023-07-20T10:05:33;3.50;;;2.42;;
73729;SDS011;62036;48.128;16.458;2023-07-20T10:08:00;2.92;;;1.63;;
73729;SDS011;62036;48.128;16.458;2023-07-20T10:10:27;3.95;;;1.92;;
73729;SDS011;62036;48.128;16.458;2023-07-20T10:12:54;6.80;;;2.10;;
73729;SDS011;62036;48.128;16.458;2023-07-20T10:15:28;3.85;;;2.67;;
73729;SDS011;62036;48.128;16.458;2023-07-20T10:20:54;2.78;;;1.98;;
73729;SDS011;62036;48.128;16.458;2023-07-20T10:23:21;4.97;;;1.90;;
73729;SDS011;62036;48.128;16.458;2023-07-20T10:25:47;3.05;;;1.73;;
73729;SDS011;62036;48.128;16.458;2023-07-20T10:28:13;9.63;;;2.10;;
73729;SDS011;62036;48.128;16.458;2023-07-20T10:30:40;4.13;;;1.75;;
73729;SDS011;62036;48.128;16.458;2023-07-20T10:33:07;4.90;;;2.63;;
73729;SDS011;62036;48.128;16.458;2023-07-20T10:38:18;5.10;;;1.75;;
73729;SDS011;62036;48.128;16.458;2023-07-20T10:40:53;4.47;;;1.90;;
73729;SDS011;62036;48.128;16.458;2023-07-20T10:43:20;4.03;;;1.38;;
73729;SDS011;62036;48.128;16.458;2023-07-20T10:45:49;2.70;;;1.30;;
73729;SDS011;62036;48.128;16.458;2023-07-20T10:48:16;4.18;;;1.33;;
73729;SDS011;62036;48.128;16.458;2023-07-20T10:50:44;2.22;;;1.23;;
73729;SDS011;62036;48.128;16.458;2023-07-20T10:53:19;5.18;;;3.20;;
73729;SDS011;62036;48.128;16.458;2023-07-20T10:55:45;7.47;;;5.32;;
73729;SDS011;62036;48.128;16.458;2023-07-20T10:58:15;5.63;;;1.63;;
73729;SDS011;62036;48.128;16.458;2023-07-20T11:01:01;6.20;;;1.58;;
73729;SDS011;62036;48.128;16.458;2023-07-20T11:03:31;4.45;;;1.85;;
73729;SDS011;62036;48.128;16.458;2023-07-20T11:05:57;10.98;;;1.98;;
73729;SDS011;62036;48.128;16.458;2023-07-20T11:08:42;5.13;;;1.40;;
73729;SDS011;62036;48.128;16.458;2023-07-20T11:11:21;6.63;;;1.95;;
73729;SDS011;62036;48.128;16.458;2023-07-20T11:14:01;9.65;;;1.90;;
73729;SDS011;62036;48.128;16.458;2023-07-20T11:16:46;1.75;;;1.30;;
73729;SDS011;62036;48.128;16.458;2023-07-20T11:21:42;4.70;;;1.55;;
73729;SDS011;62036;48.128;16.458;2023-07-20T11:24:08;5.85;;;1.70;;
73729;SDS011;62036;48.128;16.458;2023-07-20T11:29:13;7.25;;;1.70;;
73729;SDS011;62036;48.128;16.458;2023-07-20T11:31:40;2.83;;;1.50;;
73729;SDS011;62036;48.128;16.458;2023-07-20T11:34:13;3.80;;;1.42;;
73729;SDS011;62036;48.128;16.458;2023-07-20T11:36:40;5.32;;;1.55;;
73729;SDS011;62036;48.128;16.458;2023-07-20T11:39:09;7.50;;;1.30;;
73729;SDS011;62036;48.128;16.458;2023-07-20T11:41:35;12.05;;;1.85;;
73729;SDS011;62036;48.128;16.458;2023-07-20T11:44:01;10.52;;;2.08;;
73729;SDS011;62036;48.128;16.458;2023-07-20T11:46:31;8.15;;;1.50;;
73729;SDS011;62036;48.128;16.458;2023-07-20T11:49:00;1.60;;;1.15;;
73729;SDS011;62036;48.128;16.458;2023-07-20T11:51:29;4.43;;;1.15;;
73729;SDS011;62036;48.128;16.458;2023-07-20T11:53:55;3.58;;;1.70;;
73729;SDS011;62036;48.128;16.458;2023-07-20T11:56:22;3.13;;;1.20;;
73729;SDS011;62036;48.128;16.458;2023-07-20T11:58:48;3.30;;;1.20;;
73729;SDS011;62036;48.128;16.458;2023-07-20T12:01:16;2.35;;;1.40;;
73729;SDS011;62036;48.128;16.458;2023-07-20T12:03:43;2.90;;;1.23;;
73729;SDS011;62036;48.128;16.458;2023-07-20T12:06:09;1.85;;;1.30;;
73729;SDS011;62036;48.128;16.458;2023-07-20T12:08:39;2.97;;;1.40;;
73729;SDS011;62036;48.128;16.458;2023-07-20T12:11:06;3.50;;;1.17;;
73729;SDS011;62036;48.128;16.458;2023-07-20T12:13:40;4.20;;;1.20;;
73729;SDS011;62036;48.128;16.458;2023-07-20T12:16:11;8.15;;;1.92;;
73729;SDS011;62036;48.128;16.458;2023-07-20T12:18:37;3.17;;;1.00;;
73729;SDS011;62036;48.128;16.458;2023-07-20T12:21:03;4.00;;;1.20;;
73729;SDS011;62036;48.128;16.458;2023-07-20T12:23:40;3.85;;;1.60;;
73729;SDS011;62036;48.128;16.458;2023-07-20T12:26:07;1.80;;;1.30;;
73729;SDS011;62036;48.128;16.458;2023-07-20T12:28:35;2.42;;;1.10;;
73729;SDS011;62036;48.128;16.458;2023-07-20T12:31:01;6.85;;;1.77;;
73729;SDS011;62036;48.128;16.458;2023-07-20T12:33:27;5.70;;;1.73;;
73729;SDS011;62036;48.128;16.458;2023-07-20T12:35:54;15.43;;;1.95;;
73729;SDS011;62036;48.128;16.458;2023-07-20T12:38:21;1.70;;;1.13;;
73729;SDS011;62036;48.128;16.458;2023-07-20T12:40:48;13.05;;;3.00;;
73729;SDS011;62036;48.128;16.458;2023-07-20T12:43:14;7.03;;;3.72;;
73729;SDS011;62036;48.128;16.458;2023-07-20T12:45:40;4.38;;;1.90;;
73729;SDS011;62036;48.128;16.458;2023-07-20T12:48:06;1.27;;;1.08;;
73729;SDS011;62036;48.128;16.458;2023-07-20T12:50:32;2.10;;;0.85;;
73729;SDS011;62036;48.128;16.458;2023-07-20T12:52:58;2.80;;;1.00;;
73729;SDS011;62036;48.128;16.458;2023-07-20T12:55:24;2.38;;;1.30;;
73729;SDS011;62036;48.128;16.458;2023-07-20T12:57:50;3.92;;;1.20;;
73729;SDS011;62036;48.128;16.458;2023-07-20T13:00:17;2.95;;;1.38;;
73729;SDS011;62036;48.128;16.458;2023-07-20T13:02:43;4.68;;;2.17;;
73729;SDS011;62036;48.128;16.458;2023-07-20T13:05:10;4.13;;;1.13;;
73729;SDS011;62036;48.128;16.458;2023-07-20T13:07:36;1.55;;;0.80;;
73729;SDS011;62036;48.128;16.458;2023-07-20T13:10:03;4.13;;;1.02;;
73729;SDS011;62036;48.128;16.458;2023-07-20T13:12:30;2.13;;;1.10;;
73729;SDS011;62036;48.128;16.458;2023-07-20T13:14:57;5.78;;;0.90;;
73729;SDS011;62036;48.128;16.458;2023-07-20T13:17:26;7.85;;;1.25;;
73729;SDS011;62036;48.128;16.458;2023-07-20T13:19:52;3.30;;;1.10;;
73729;SDS011;62036;48.128;16.458;2023-07-20T13:22:18;2.85;;;1.20;;
73729;SDS011;62036;48.128;16.458;2023-07-20T13:24:45;7.47;;;1.10;;
73729;SDS011;62036;48.128;16.458;2023-07-20T13:27:15;4.35;;;1.13;;
73729;SDS011;62036;48.128;16.458;2023-07-20T13:29:41;2.42;;;1.15;;
73729;SDS011;62036;48.128;16.458;2023-07-20T13:32:07;1.45;;;0.88;;
73729;SDS011;62036;48.128;16.458;2023-07-20T13:34:34;1.75;;;0.80;;
73729;SDS011;62036;48.128;16.458;2023-07-20T13:37:00;1.55;;;0.80;;
73729;SDS011;62036;48.128;16.458;2023-07-20T13:39:26;1.50;;;1.05;;
73729;SDS011;62036;48.128;16.458;2023-07-20T13:41:53;1.30;;;1.10;;
73729;SDS011;62036;48.128;16.458;2023-07-20T13:44:19;1.95;;;0.90;;
73729;SDS011;62036;48.128;16.458;2023-07-20T13:46:46;3.15;;;1.00;;
73729;SDS011;62036;48.128;16.458;2023-07-20T13:49:12;2.25;;;1.00;;
73729;SDS011;62036;48.128;16.458;2023-07-20T13:51:38;1.75;;;0.68;;
73729;SDS011;62036;48.128;16.458;2023-07-20T13:54:05;2.72;;;1.10;;
73729;SDS011;62036;48.128;16.458;2023-07-20T13:56:31;1.85;;;1.20;;
73729;SDS011;62036;48.128;16.458;2023-07-20T13:58:57;6.07;;;1.00;;
73729;SDS011;62036;48.128;16.458;2023-07-20T14:01:23;2.33;;;1.30;;
73729;SDS011;62036;48.128;16.458;2023-07-20T14:03:53;1.80;;;0.98;;
73729;SDS011;62036;48.128;16.458;2023-07-20T14:06:19;5.97;;;3.03;;
73729;SDS011;62036;48.128;16.458;2023-07-20T14:08:45;2.03;;;1.17;;
73729;SDS011;62036;48.128;16.458;2023-07-20T14:11:15;2.85;;;1.00;;
73729;SDS011;62036;48.128;16.458;2023-07-20T14:13:41;1.67;;;0.90;;
73729;SDS011;62036;48.128;16.458;2023-07-20T14:16:07;2.38;;;0.95;;
73729;SDS011;62036;48.128;16.458;2023-07-20T14:18:33;3.15;;;0.93;;
73729;SDS011;62036;48.128;16.458;2023-07-20T14:21:00;1.38;;;1.02;;
73729;SDS011;62036;48.128;16.458;2023-07-20T14:23:28;1.77;;;0.90;;
73729;SDS011;62036;48.128;16.458;2023-07-20T14:25:54;1.88;;;0.82;;
73729;SDS011;62036;48.128;16.458;2023-07-20T14:28:20;1.63;;;1.00;;
73729;SDS011;62036;48.128;16.458;2023-07-20T14:30:46;1.23;;;0.80;;
73729;SDS011;62036;48.128;16.458;2023-07-20T14:33:12;1.33;;;0.77;;
73729;SDS011;62036;48.128;16.458;2023-07-20T14:35:38;3.92;;;1.05;;
73729;SDS011;62036;48.128;16.458;2023-07-20T14:38:04;1.33;;;1.00;;
73729;SDS011;62036;48.128;16.458;2023-07-20T14:40:30;1.40;;;0.82;;
73729;SDS011;62036;48.128;16.458;2023-07-20T14:42:56;3.80;;;1.13;;
73729;SDS011;62036;48.128;16.458;2023-07-20T14:45:22;2.25;;;0.93;;
73729;SDS011;62036;48.128;16.458;2023-07-20T14:47:48;0.90;;;0.70;;
73729;SDS011;62036;48.128;16.458;2023-07-20T14:50:18;1.88;;;1.20;;
73729;SDS011;62036;48.128;16.458;2023-07-20T14:52:45;1.50;;;0.88;;
73729;SDS011;62036;48.128;16.458;2023-07-20T14:55:11;2.83;;;1.00;;
73729;SDS011;62036;48.128;16.458;2023-07-20T14:57:37;1.63;;;0.90;;
73729;SDS011;62036;48.128;16.458;2023-07-20T15:00:05;2.25;;;1.23;;